createdAt,value
2022-12-06T00:01:25.650Z,8.43
2022-12-06T00:03:57.712Z,10.70
2022-12-06T00:06:29.637Z,8.57
2022-12-06T00:08:59.728Z,10.25
2022-12-06T00:11:29.373Z,9.50
2022-12-06T00:13:58.562Z,9.48
2022-12-06T00:16:27.256Z,9.15
2022-12-06T00:18:55.405Z,9.80
2022-12-06T00:21:25.732Z,9.27
2022-12-06T00:23:56.330Z,10.05
2022-12-06T00:26:25.400Z,9.02
2022-12-06T00:28:54.743Z,10.02
2022-12-06T00:31:28.579Z,10.20
2022-12-06T00:33:56.751Z,9.52
2022-12-06T00:36:28.726Z,10.60
2022-12-06T00:39:00.385Z,9.88
2022-12-06T00:41:29.741Z,11.40
2022-12-06T00:43:57.595Z,10.65
2022-12-06T00:46:28.037Z,11.07
2022-12-06T00:48:57.362Z,11.20
2022-12-06T00:51:27.483Z,10.90
2022-12-06T00:53:55.591Z,10.88
2022-12-06T00:56:26.108Z,13.88
2022-12-06T01:01:25.635Z,11.77
2022-12-06T01:03:59.556Z,12.30
2022-12-06T01:06:29.087Z,11.38
2022-12-06T01:08:57.717Z,11.77
2022-12-06T01:11:30.569Z,11.82
2022-12-06T01:14:00.691Z,12.90
2022-12-06T01:16:31.272Z,13.65
2022-12-06T01:19:00.813Z,12.70
2022-12-06T01:21:29.513Z,11.25
2022-12-06T01:23:57.682Z,12.43
2022-12-06T01:26:27.118Z,12.95
2022-12-06T01:28:56.322Z,12.55
2022-12-06T01:31:24.636Z,11.40
2022-12-06T01:33:52.289Z,12.40
2022-12-06T01:36:21.346Z,12.23
2022-12-06T01:38:53.551Z,12.38
2022-12-06T01:41:24.761Z,11.63
2022-12-06T01:43:57.690Z,12.10
2022-12-06T01:46:32.562Z,11.80
2022-12-06T01:49:11.186Z,11.90
2022-12-06T01:51:43.544Z,12.88
2022-12-06T01:54:14.501Z,12.18
2022-12-06T01:57:11.034Z,14.75
2022-12-06T01:59:40.475Z,11.70
2022-12-06T02:02:09.566Z,11.60
2022-12-06T02:04:39.718Z,11.57
2022-12-06T02:07:08.892Z,11.32
2022-12-06T02:09:37.817Z,11.05
2022-12-06T02:12:08.562Z,11.07
2022-12-06T02:14:44.566Z,10.95
2022-12-06T02:17:27.536Z,12.40
2022-12-06T02:20:06.008Z,10.68
2022-12-06T02:23:01.558Z,10.73
2022-12-06T02:25:52.649Z,11.07
2022-12-06T02:28:40.560Z,11.45
2022-12-06T02:31:18.204Z,13.50
2022-12-06T02:33:50.303Z,14.20
2022-12-06T02:38:52.072Z,12.02
2022-12-06T02:41:24.665Z,10.77
2022-12-06T02:43:57.630Z,11.13
2022-12-06T02:46:33.856Z,12.27
2022-12-06T02:49:06.549Z,11.30
2022-12-06T02:51:36.949Z,11.48
2022-12-06T02:54:08.727Z,11.68
2022-12-06T02:56:40.979Z,12.82
2022-12-06T02:59:08.572Z,12.80
2022-12-06T03:01:44.689Z,13.43
2022-12-06T03:04:46.351Z,11.32
2022-12-06T03:07:32.873Z,12.50
2022-12-06T03:10:17.627Z,11.25
2022-12-06T03:12:53.968Z,12.45
2022-12-06T03:15:34.106Z,10.90
2022-12-06T03:18:10.449Z,12.23
2022-12-06T03:20:45.374Z,12.07
2022-12-06T03:23:17.526Z,11.32
2022-12-06T03:25:49.640Z,12.23
2022-12-06T03:28:19.676Z,11.02
2022-12-06T03:30:51.137Z,13.20
2022-12-06T03:33:23.120Z,11.70
2022-12-06T03:35:55.625Z,10.80
2022-12-06T03:38:28.971Z,12.38
2022-12-06T03:41:01.022Z,11.43
2022-12-06T03:43:28.695Z,12.35
2022-12-06T03:46:03.985Z,13.27
2022-12-06T03:48:37.629Z,10.07
2022-12-06T03:51:08.679Z,10.68
2022-12-06T03:53:46.651Z,11.10
2022-12-06T03:56:14.560Z,12.43
2022-12-06T03:58:42.129Z,10.65
2022-12-06T04:01:09.838Z,12.40
2022-12-06T04:03:39.055Z,13.63
2022-12-06T04:06:07.770Z,11.75
2022-12-06T04:08:35.567Z,11.38
2022-12-06T04:11:04.564Z,12.45
2022-12-06T04:13:36.522Z,10.80
2022-12-06T04:16:25.010Z,10.77
2022-12-06T04:18:53.430Z,10.38
2022-12-06T04:21:39.531Z,11.45
2022-12-06T04:24:08.151Z,11.35
2022-12-06T04:26:36.569Z,10.63
2022-12-06T04:29:28.162Z,10.55
2022-12-06T04:32:14.410Z,11.50
2022-12-06T04:35:01.516Z,11.75
2022-12-06T04:37:46.616Z,10.82
2022-12-06T04:40:14.153Z,11.88
2022-12-06T04:43:00.575Z,11.82
2022-12-06T04:45:29.060Z,11.00
2022-12-06T04:47:58.039Z,12.48
2022-12-06T04:50:26.907Z,11.65
2022-12-06T04:52:55.106Z,12.02
2022-12-06T04:55:23.562Z,10.80
2022-12-06T04:57:52.627Z,11.90
2022-12-06T05:00:21.535Z,11.52
2022-12-06T05:02:49.048Z,11.38
2022-12-06T05:05:18.142Z,10.98
2022-12-06T05:07:47.076Z,10.40
2022-12-06T05:10:14.693Z,10.40
2022-12-06T05:12:42.278Z,11.45
2022-12-06T05:15:15.790Z,11.98
2022-12-06T05:17:43.839Z,11.18
2022-12-06T05:20:14.110Z,11.57
2022-12-06T05:22:42.174Z,10.82
2022-12-06T05:25:11.747Z,12.38
2022-12-06T05:27:39.663Z,12.13
2022-12-06T05:30:13.538Z,12.02
2022-12-06T05:32:45.646Z,11.35
2022-12-06T05:37:41.458Z,11.40
2022-12-06T05:40:11.696Z,12.77
2022-12-06T05:42:41.651Z,12.15
2022-12-06T05:45:10.599Z,12.23
2022-12-06T05:47:40.557Z,10.95
2022-12-06T05:50:13.543Z,10.65
2022-12-06T05:53:10.556Z,11.90
2022-12-06T05:55:39.642Z,12.73
2022-12-06T05:58:12.077Z,11.88
2022-12-06T06:00:40.249Z,12.10
2022-12-06T06:03:08.250Z,12.88
2022-12-06T06:05:37.546Z,10.80
2022-12-06T06:08:05.632Z,14.20
2022-12-06T06:10:33.632Z,12.10
2022-12-06T06:13:04.251Z,13.32
2022-12-06T06:15:32.260Z,14.80
2022-12-06T06:17:59.817Z,11.50
2022-12-06T06:20:27.388Z,14.18
2022-12-06T06:22:56.544Z,13.20
2022-12-06T06:25:24.945Z,12.70
2022-12-06T06:27:54.833Z,13.50
2022-12-06T06:30:24.559Z,15.60
2022-12-06T06:33:19.074Z,13.32
2022-12-06T06:35:50.048Z,14.13
2022-12-06T06:38:17.601Z,13.25
2022-12-06T06:40:46.072Z,14.40
2022-12-06T06:43:20.966Z,16.27
2022-12-06T06:45:54.593Z,14.25
2022-12-06T06:48:23.627Z,16.20
2022-12-06T06:50:56.968Z,14.82
2022-12-06T06:53:27.767Z,15.05
2022-12-06T06:55:55.963Z,14.70
2022-12-06T06:58:23.923Z,14.23
2022-12-06T07:00:55.307Z,15.68
2022-12-06T07:03:24.580Z,13.90
2022-12-06T07:05:54.544Z,12.30
2022-12-06T07:08:25.639Z,14.83
2022-12-06T07:10:54.212Z,13.95
2022-12-06T07:13:24.196Z,14.80
2022-12-06T07:15:52.620Z,16.10
2022-12-06T07:18:21.965Z,14.32
2022-12-06T07:20:50.170Z,14.10
2022-12-06T07:26:13.575Z,15.98
2022-12-06T07:29:07.781Z,16.05
2022-12-06T07:31:35.644Z,17.70
2022-12-06T07:34:04.639Z,17.67
2022-12-06T07:36:33.032Z,16.95
2022-12-06T07:39:01.340Z,15.95
2022-12-06T07:41:48.442Z,17.52
2022-12-06T07:44:55.592Z,15.18
2022-12-06T07:47:38.792Z,15.82
2022-12-06T07:50:14.500Z,15.00
2022-12-06T07:52:47.579Z,13.95
2022-12-06T07:55:16.271Z,14.23
2022-12-06T08:00:37.568Z,13.43
2022-12-06T08:03:05.159Z,11.00
2022-12-06T08:05:34.565Z,11.88
2022-12-06T08:08:02.697Z,13.60
2022-12-06T08:10:30.624Z,12.77
2022-12-06T08:12:58.134Z,11.90
2022-12-06T08:15:26.029Z,12.60
2022-12-06T08:17:53.603Z,12.80
2022-12-06T08:20:21.112Z,12.70
2022-12-06T08:22:50.550Z,15.13
2022-12-06T08:25:20.959Z,12.25
2022-12-06T08:27:48.617Z,12.70
2022-12-06T08:30:20.182Z,14.13
2022-12-06T08:32:49.560Z,15.48
2022-12-06T08:35:43.549Z,13.45
2022-12-06T08:38:12.657Z,12.48
2022-12-06T08:43:33.603Z,12.52
2022-12-06T08:46:06.556Z,13.68
2022-12-06T08:51:10.257Z,13.45
2022-12-06T08:53:39.250Z,14.85
2022-12-06T08:56:07.565Z,13.65
2022-12-06T08:58:35.179Z,11.32
2022-12-06T09:01:10.751Z,15.93
2022-12-06T09:03:38.663Z,12.60
2022-12-06T09:06:09.080Z,14.32
2022-12-06T09:08:40.055Z,12.70
2022-12-06T09:11:09.061Z,12.65
2022-12-06T09:13:41.630Z,13.85
2022-12-06T09:16:15.699Z,14.10
2022-12-06T09:18:48.355Z,13.68
2022-12-06T09:21:18.728Z,13.85
2022-12-06T09:23:49.880Z,12.65
2022-12-06T09:26:18.191Z,14.70
2022-12-06T09:28:49.512Z,13.15
2022-12-06T09:31:19.458Z,12.38
2022-12-06T09:33:52.819Z,14.05
2022-12-06T09:36:23.429Z,13.68
2022-12-06T09:38:56.381Z,12.50
2022-12-06T09:41:53.148Z,12.75
2022-12-06T09:44:41.680Z,13.82
2022-12-06T09:47:22.344Z,13.73
2022-12-06T09:50:05.230Z,12.95
2022-12-06T09:52:44.544Z,12.88
2022-12-06T09:55:31.564Z,13.55
2022-12-06T09:58:39.283Z,13.25
2022-12-06T10:01:18.820Z,14.52
2022-12-06T10:03:59.638Z,14.13
2022-12-06T10:06:35.822Z,11.98
2022-12-06T10:09:19.686Z,15.68
2022-12-06T10:12:07.547Z,13.10
2022-12-06T10:14:53.793Z,13.00
2022-12-06T10:17:33.672Z,15.45
2022-12-06T10:20:12.969Z,14.60
2022-12-06T10:22:55.556Z,13.93
2022-12-06T10:25:27.516Z,16.27
2022-12-06T10:28:06.608Z,15.85
2022-12-06T10:30:41.155Z,13.45
2022-12-06T10:33:21.133Z,13.85
2022-12-06T10:35:54.753Z,13.27
2022-12-06T10:38:31.537Z,13.27
2022-12-06T10:41:10.502Z,11.52
2022-12-06T10:44:12.404Z,12.82
2022-12-06T10:47:06.523Z,12.85
2022-12-06T10:49:42.789Z,12.68
2022-12-06T10:52:23.989Z,11.68
2022-12-06T10:54:59.577Z,11.13
2022-12-06T10:57:37.208Z,12.38
2022-12-06T11:00:15.901Z,10.20
2022-12-06T11:02:53.384Z,10.35
2022-12-06T11:05:28.035Z,10.50
2022-12-06T11:08:25.863Z,9.90
2022-12-06T11:10:56.614Z,9.35
2022-12-06T11:13:39.297Z,10.20
2022-12-06T11:16:13.493Z,10.05
2022-12-06T11:18:41.773Z,9.75
2022-12-06T11:21:41.119Z,8.60
2022-12-06T11:24:16.160Z,9.60
2022-12-06T11:26:48.568Z,8.32
2022-12-06T11:29:17.444Z,10.15
2022-12-06T11:31:49.693Z,8.15
2022-12-06T11:34:23.554Z,9.40
2022-12-06T11:36:59.658Z,8.02
2022-12-06T11:39:29.243Z,7.65
2022-12-06T11:41:59.436Z,8.70
2022-12-06T11:44:33.085Z,7.82
2022-12-06T11:47:03.505Z,7.25
2022-12-06T11:49:36.400Z,6.13
2022-12-06T11:52:08.481Z,7.32
2022-12-06T11:54:44.725Z,7.53
2022-12-06T11:57:22.669Z,7.30
2022-12-06T12:00:11.174Z,6.25
2022-12-06T12:02:45.338Z,7.10
2022-12-06T12:05:20.115Z,7.07
2022-12-06T12:07:51.703Z,6.28
2022-12-06T12:10:40.981Z,7.28
2022-12-06T12:13:38.047Z,11.65
2022-12-06T12:16:14.800Z,6.50
2022-12-06T12:18:52.309Z,6.20
2022-12-06T12:21:32.207Z,6.28
2022-12-06T12:24:00.056Z,6.22
2022-12-06T12:26:40.662Z,5.85
2022-12-06T12:29:20.098Z,4.95
2022-12-06T12:31:59.725Z,6.13
2022-12-06T12:34:33.326Z,5.72
2022-12-06T12:37:04.667Z,5.93
2022-12-06T12:39:37.739Z,6.05
2022-12-06T12:42:06.264Z,6.63
2022-12-06T12:44:39.270Z,7.32
2022-12-06T12:47:18.622Z,7.68
2022-12-06T12:50:20.241Z,10.45
2022-12-06T12:52:48.555Z,6.97
2022-12-06T12:55:20.442Z,10.80
2022-12-06T12:57:50.418Z,8.57
2022-12-06T13:00:19.797Z,8.88
2022-12-06T13:02:52.660Z,7.57
2022-12-06T13:05:35.564Z,6.50
2022-12-06T13:08:12.900Z,6.25
2022-12-06T13:10:43.890Z,6.57
2022-12-06T13:13:17.544Z,7.03
2022-12-06T13:15:48.548Z,6.93
2022-12-06T13:18:21.810Z,7.07
2022-12-06T13:20:54.364Z,7.22
2022-12-06T13:23:26.031Z,7.03
2022-12-06T13:28:34.621Z,9.65
2022-12-06T13:33:37.137Z,8.48
2022-12-06T13:36:10.662Z,7.88
2022-12-06T13:38:39.845Z,7.80
2022-12-06T13:41:13.640Z,7.15
2022-12-06T13:43:51.140Z,10.68
2022-12-06T13:46:28.316Z,10.15
2022-12-06T13:48:57.909Z,9.07
2022-12-06T13:51:50.423Z,8.93
2022-12-06T13:54:36.138Z,5.85
2022-12-06T13:57:22.381Z,6.30
2022-12-06T13:59:50.542Z,5.43
2022-12-06T14:02:47.625Z,6.22
2022-12-06T14:08:31.690Z,7.03
2022-12-06T14:11:25.624Z,5.88
2022-12-06T14:14:08.753Z,5.53
2022-12-06T14:16:39.957Z,5.38
2022-12-06T14:19:16.258Z,7.32
2022-12-06T14:21:51.045Z,5.40
2022-12-06T14:24:32.549Z,7.43
2022-12-06T14:27:05.517Z,6.57
2022-12-06T14:29:35.555Z,6.95
2022-12-06T14:32:04.440Z,10.48
2022-12-06T14:34:34.126Z,6.07
2022-12-06T14:37:04.567Z,6.45
2022-12-06T14:39:34.629Z,6.15
2022-12-06T14:42:34.418Z,6.78
2022-12-06T14:45:02.959Z,6.57
2022-12-06T14:47:32.569Z,5.65
2022-12-06T14:50:19.672Z,6.78
2022-12-06T14:52:59.418Z,6.43
2022-12-06T14:55:30.482Z,5.80
2022-12-06T14:58:00.924Z,6.28
2022-12-06T15:00:35.981Z,5.55
2022-12-06T15:03:28.471Z,6.13
2022-12-06T15:06:16.451Z,6.90
2022-12-06T15:08:48.137Z,6.80
2022-12-06T15:11:49.327Z,7.72
2022-12-06T15:14:18.943Z,8.30
2022-12-06T15:16:56.246Z,9.82
2022-12-06T15:19:24.982Z,7.18
2022-12-06T15:21:53.156Z,11.70
2022-12-06T15:24:22.443Z,13.88
2022-12-06T15:26:51.479Z,14.63
2022-12-06T15:29:19.526Z,12.63
2022-12-06T15:31:53.431Z,10.35
2022-12-06T15:34:24.664Z,9.88
2022-12-06T15:37:03.900Z,9.37
2022-12-06T15:39:41.682Z,9.18
2022-12-06T15:42:16.974Z,8.18
2022-12-06T15:44:49.229Z,7.43
2022-12-06T15:47:18.831Z,8.00
2022-12-06T15:49:46.607Z,6.07
2022-12-06T15:52:17.438Z,6.03
2022-12-06T15:54:45.608Z,5.93
2022-12-06T15:57:14.775Z,6.13
2022-12-06T15:59:44.674Z,5.78
2022-12-06T16:02:18.699Z,6.40
2022-12-06T16:04:48.636Z,7.15
2022-12-06T16:07:19.043Z,5.95
2022-12-06T16:09:47.529Z,6.80
2022-12-06T16:12:18.022Z,7.70
2022-12-06T16:14:45.566Z,6.40
2022-12-06T16:17:14.069Z,5.40
2022-12-06T16:20:01.089Z,6.93
2022-12-06T16:23:02.031Z,7.78
2022-12-06T16:25:30.047Z,8.52
2022-12-06T16:27:58.999Z,7.03
2022-12-06T16:30:32.561Z,7.53
2022-12-06T16:33:05.804Z,7.40
2022-12-06T16:35:35.430Z,8.02
2022-12-06T16:38:02.957Z,8.93
2022-12-06T16:40:33.839Z,9.30
2022-12-06T16:43:02.802Z,8.55
2022-12-06T16:45:30.326Z,9.48
2022-12-06T16:47:57.879Z,9.57
2022-12-06T16:50:26.734Z,8.30
2022-12-06T16:52:55.084Z,9.38
2022-12-06T16:55:22.740Z,9.07
2022-12-06T16:57:51.193Z,9.85
2022-12-06T17:00:22.701Z,11.55
2022-12-06T17:02:51.071Z,10.93
2022-12-06T17:05:21.059Z,8.55
2022-12-06T17:07:49.260Z,9.00
2022-12-06T17:10:19.541Z,7.22
2022-12-06T17:12:48.531Z,6.70
2022-12-06T17:15:19.555Z,7.10
2022-12-06T17:17:49.276Z,6.97
2022-12-06T17:20:18.377Z,7.32
2022-12-06T17:22:46.621Z,7.35
2022-12-06T17:25:16.034Z,7.53
2022-12-06T17:27:44.012Z,10.40
2022-12-06T17:30:17.590Z,9.77
2022-12-06T17:32:47.135Z,8.60
2022-12-06T17:35:16.455Z,10.73
2022-12-06T17:37:44.201Z,8.38
2022-12-06T17:40:12.761Z,7.78
2022-12-06T17:42:58.143Z,7.85
2022-12-06T17:45:26.679Z,9.43
2022-12-06T17:47:59.582Z,7.97
2022-12-06T17:50:28.601Z,7.47
2022-12-06T17:52:56.307Z,6.25
2022-12-06T17:55:23.901Z,7.65
2022-12-06T17:57:51.873Z,7.63
2022-12-06T18:00:20.190Z,7.03
2022-12-06T18:02:48.878Z,8.10
2022-12-06T18:05:16.942Z,7.55
2022-12-06T18:07:46.087Z,8.52
2022-12-06T18:10:14.592Z,7.32
2022-12-06T18:12:42.245Z,7.22
2022-12-06T18:15:30.582Z,9.30
2022-12-06T18:17:58.192Z,8.93
2022-12-06T18:20:26.563Z,8.13
2022-12-06T18:22:55.655Z,8.02
2022-12-06T18:25:23.595Z,6.63
2022-12-06T18:27:51.259Z,9.13
2022-12-06T18:30:19.177Z,9.23
2022-12-06T18:32:46.790Z,9.57
2022-12-06T18:35:14.515Z,7.90
2022-12-06T18:37:43.576Z,9.93
2022-12-06T18:40:14.777Z,9.10
2022-12-06T18:42:42.459Z,9.32
2022-12-06T18:45:11.687Z,10.10
2022-12-06T18:47:39.297Z,9.82
2022-12-06T18:50:10.304Z,10.45
2022-12-06T18:52:38.304Z,10.07
2022-12-06T18:55:06.617Z,8.95
2022-12-06T18:57:38.518Z,9.68
2022-12-06T19:00:07.715Z,8.95
2022-12-06T19:02:36.670Z,8.60
2022-12-06T19:05:04.903Z,8.68
2022-12-06T19:07:32.729Z,8.02
2022-12-06T19:10:01.589Z,9.23
2022-12-06T19:12:30.004Z,8.80
2022-12-06T19:14:59.698Z,8.60
2022-12-06T19:17:27.957Z,10.25
2022-12-06T19:19:55.636Z,10.82
2022-12-06T19:22:23.230Z,12.35
2022-12-06T19:24:50.908Z,9.70
2022-12-06T19:27:20.574Z,12.02
2022-12-06T19:29:48.615Z,11.05
2022-12-06T19:32:17.569Z,10.55
2022-12-06T19:34:45.488Z,12.30
2022-12-06T19:37:13.289Z,10.60
2022-12-06T19:39:40.882Z,10.45
2022-12-06T19:42:26.467Z,11.20
2022-12-06T19:44:54.082Z,9.93
2022-12-06T19:47:25.569Z,12.20
2022-12-06T19:49:53.153Z,12.07
2022-12-06T19:52:20.742Z,11.75
2022-12-06T19:54:48.294Z,12.55
2022-12-06T19:57:15.941Z,11.52
2022-12-06T19:59:43.529Z,11.68
2022-12-06T20:02:12.700Z,11.70
2022-12-06T20:04:43.821Z,12.35
2022-12-06T20:07:12.103Z,14.80
2022-12-06T20:09:39.997Z,11.93
2022-12-06T20:12:08.342Z,12.35
2022-12-06T20:14:40.592Z,12.38
2022-12-06T20:17:10.614Z,12.15
2022-12-06T20:19:39.300Z,13.80
2022-12-06T20:22:08.618Z,13.70
2022-12-06T20:24:36.257Z,12.32
2022-12-06T20:27:04.023Z,12.30
2022-12-06T20:29:33.076Z,15.48
2022-12-06T20:32:02.043Z,14.95
2022-12-06T20:34:33.860Z,14.50
2022-12-06T20:37:03.774Z,14.48
2022-12-06T20:39:35.018Z,14.77
2022-12-06T20:42:05.348Z,13.82
2022-12-06T20:44:34.565Z,15.52
2022-12-06T20:47:02.818Z,12.93
2022-12-06T20:49:30.760Z,12.90
2022-12-06T20:52:01.816Z,19.88
2022-12-06T20:54:29.368Z,16.33
2022-12-06T20:56:58.381Z,14.55
2022-12-06T20:59:26.044Z,16.40
2022-12-06T21:01:55.599Z,17.52
2022-12-06T21:04:24.120Z,16.30
2022-12-06T21:06:51.852Z,16.10
2022-12-06T21:09:19.638Z,17.73
2022-12-06T21:11:47.503Z,16.02
2022-12-06T21:14:19.564Z,17.88
2022-12-06T21:16:47.123Z,17.70
2022-12-06T21:19:17.579Z,17.90
2022-12-06T21:21:47.335Z,17.42
2022-12-06T21:24:17.319Z,19.17
2022-12-06T21:26:45.469Z,19.50
2022-12-06T21:29:18.734Z,19.52
2022-12-06T21:31:48.612Z,17.70
2022-12-06T21:34:16.615Z,20.13
2022-12-06T21:36:45.542Z,17.85
2022-12-06T21:39:14.651Z,17.60
2022-12-06T21:41:42.471Z,20.90
2022-12-06T21:44:34.123Z,19.13
2022-12-06T21:47:28.067Z,18.75
2022-12-06T21:49:56.008Z,22.58
2022-12-06T21:52:23.742Z,19.95
2022-12-06T21:54:53.113Z,20.30
2022-12-06T21:57:20.753Z,20.48
2022-12-06T21:59:48.642Z,20.40
2022-12-06T22:02:17.603Z,18.63
2022-12-06T22:04:47.488Z,19.77
2022-12-06T22:07:16.050Z,20.23
2022-12-06T22:09:44.081Z,19.40
2022-12-06T22:12:12.572Z,21.60
2022-12-06T22:14:40.240Z,19.73
2022-12-06T22:17:07.752Z,21.10
2022-12-06T22:19:35.576Z,20.35
2022-12-06T22:22:05.571Z,20.15
2022-12-06T22:24:33.589Z,19.63
2022-12-06T22:27:01.184Z,19.00
2022-12-06T22:29:28.869Z,17.92
2022-12-06T22:31:57.118Z,21.30
2022-12-06T22:34:25.092Z,18.45
2022-12-06T22:36:52.731Z,18.88
2022-12-06T22:39:21.803Z,17.58
2022-12-06T22:41:49.423Z,20.48
2022-12-06T22:44:17.983Z,18.67
2022-12-06T22:46:47.020Z,21.73
2022-12-06T22:49:18.040Z,21.35
2022-12-06T22:51:46.110Z,22.65
2022-12-06T22:54:14.843Z,22.00
2022-12-06T22:56:48.349Z,22.02
2022-12-06T22:59:17.193Z,19.92
2022-12-06T23:01:45.010Z,20.77
2022-12-06T23:04:12.927Z,19.25
2022-12-06T23:06:40.609Z,20.23
2022-12-06T23:09:09.821Z,20.77
2022-12-06T23:11:41.094Z,19.23
2022-12-06T23:14:13.406Z,18.92
2022-12-06T23:16:43.838Z,18.73
2022-12-06T23:19:12.602Z,20.23
2022-12-06T23:21:42.512Z,17.90
2022-12-06T23:24:13.659Z,19.27
2022-12-06T23:26:43.062Z,18.20
2022-12-06T23:29:11.575Z,17.20
2022-12-06T23:31:44.870Z,17.67
2022-12-06T23:34:17.742Z,19.00
2022-12-06T23:36:45.671Z,15.98
2022-12-06T23:39:17.072Z,17.45
2022-12-06T23:41:45.657Z,16.33
2022-12-06T23:44:16.781Z,15.82
2022-12-06T23:46:46.295Z,17.63
2022-12-06T23:49:18.047Z,16.55
2022-12-06T23:51:47.105Z,14.95
2022-12-06T23:54:16.835Z,16.30
2022-12-06T23:56:45.004Z,15.88
2022-12-06T23:59:15.655Z,15.32
